Time;durP1;ratioP1;P1;durP2;ratioP2;P2;SDS_P1;SDS_P2;PMS_P1;PMS_P2;Temp;Humidity;BMP_temperature;BMP_pressure;BME280_temperature;BME280_humidity;BME280_pressure;Samples;Min_cycle;Max_cycle;Signal;HPM_P1;HPM_P2
2022/09/01 00:01:27;;;;;;;7.20;3.30;;;;;;;16.80;100.00;100540.03;1736189;82;21520;-41
2022/09/01 00:03:56;;;;;;;3.83;3.47;;;;;;;16.72;100.00;100533.43;1749520;82;20900;-41
2022/09/01 00:06:23;;;;;;;5.12;3.05;;;;;;;16.66;100.00;100539.76;1720253;82;21404;-41
2022/09/01 00:08:55;;;;;;;7.33;3.30;;;;;;;16.60;100.00;100540.89;1749375;82;20872;-41
2022/09/01 00:11:23;;;;;;;5.35;3.60;;;;;;;16.54;100.00;100541.13;1721326;82;21490;-41
2022/09/01 00:13:50;;;;;;;5.75;3.55;;;;;;;16.48;100.00;100544.00;1684899;85;20985;-41
2022/09/01 00:16:18;;;;;;;5.17;3.45;;;;;;;16.44;100.00;100547.66;1685838;84;20990;-41
2022/09/01 00:18:49;;;;;;;5.05;3.58;;;;;;;16.38;100.00;100552.23;1659856;85;21866;-41
2022/09/01 00:21:19;;;;;;;3.98;3.10;;;;;;;16.31;100.00;100549.49;1717286;81;20904;-41
2022/09/01 00:23:46;;;;;;;6.72;2.98;;;;;;;16.25;100.00;100546.27;1754904;81;20852;-41
2022/09/01 00:26:13;;;;;;;3.37;2.90;;;;;;;16.19;100.00;100544.75;1754970;81;20998;-41
2022/09/01 00:28:41;;;;;;;8.08;3.33;;;;;;;16.16;100.00;100548.80;1755021;81;20880;-41
2022/09/01 00:31:09;;;;;;;4.12;3.37;;;;;;;16.13;100.00;100548.92;1747287;81;21132;-41
2022/09/01 00:33:37;;;;;;;6.55;3.50;;;;;;;16.07;100.00;100550.02;1734813;82;20916;-41
2022/09/01 00:36:04;;;;;;;3.45;3.08;;;;;;;16.03;100.00;100551.88;1734794;82;21008;-41
2022/09/01 00:38:32;;;;;;;7.65;3.30;;;;;;;15.99;100.00;100549.47;1734536;82;21548;-41
2022/09/01 00:40:59;;;;;;;4.20;3.25;;;;;;;15.95;100.00;100548.73;1713490;81;20923;-41
2022/09/01 00:43:49;;;;;;;9.18;3.65;;;;;;;15.90;100.00;100550.69;1755067;81;21290;-41
2022/09/01 00:46:33;;;;;;;9.63;3.80;;;;;;;15.87;100.00;100542.94;1755016;81;21612;-41
2022/09/01 00:49:41;;;;;;;5.40;3.33;;;;;;;15.77;100.00;100544.59;1755240;81;21430;-41
2022/09/01 00:52:16;;;;;;;3.80;3.42;;;;;;;15.70;100.00;100555.34;1738535;81;21005;-41
2022/09/01 00:54:47;;;;;;;5.75;3.30;;;;;;;15.59;100.00;100554.45;1708205;82;20948;-41
2022/09/01 00:57:14;;;;;;;4.58;3.27;;;;;;;15.49;100.00;100554.78;1734694;82;21292;-41
2022/09/01 00:59:45;;;;;;;4.08;3.47;;;;;;;15.41;100.00;100550.31;1734395;82;21034;-41
2022/09/01 01:02:12;;;;;;;14.73;4.00;;;;;;;15.34;100.00;100552.76;1724923;81;21018;-40
2022/09/01 01:04:42;;;;;;;3.98;3.10;;;;;;;15.25;100.00;100546.12;1754877;81;20873;-41
2022/09/01 01:07:09;;;;;;;4.03;3.47;;;;;;;15.16;100.00;100553.81;1755351;80;20903;-41
2022/09/01 01:09:39;;;;;;;6.72;3.08;;;;;;;15.08;100.00;100553.25;1755140;81;21243;-41
2022/09/01 01:12:10;;;;;;;6.12;4.03;;;;;;;15.01;100.00;100563.03;1726073;81;20970;-41
2022/09/01 01:14:38;;;;;;;4.05;3.10;;;;;;;14.93;100.00;100566.37;1755030;81;20975;-41
2022/09/01 01:17:05;;;;;;;6.20;3.95;;;;;;;14.86;100.00;100563.13;1751408;81;21018;-41
2022/09/01 01:23:01;;;;;;;4.83;3.70;;;;;;;14.72;100.00;100558.39;1709945;82;21940;-40
2022/09/01 01:25:37;;;;;;;5.15;3.55;;;;;;;14.63;100.00;100563.42;1729592;83;21022;-40
2022/09/01 01:28:15;;;;;;;8.83;3.92;;;;;;;14.59;100.00;100565.73;1729860;83;20987;-40
2022/09/01 01:30:51;;;;;;;5.30;3.33;;;;;;;14.55;100.00;100571.09;1716133;82;20943;-41
2022/09/01 01:33:21;;;;;;;9.20;3.02;;;;;;;14.50;100.00;100567.32;1749503;82;21064;-40
2022/09/01 01:35:50;;;;;;;5.50;3.22;;;;;;;14.47;100.00;100572.20;1749418;82;21752;-40
2022/09/01 01:38:21;;;;;;;11.15;3.40;;;;;;;14.43;100.00;100568.44;1749514;82;20967;-40
2022/09/01 01:40:47;;;;;;;5.83;3.17;;;;;;;14.39;100.00;100567.67;1741579;82;21442;-40
2022/09/01 01:43:18;;;;;;;3.52;3.22;;;;;;;14.35;100.00;100564.34;1729504;83;20940;-40
2022/09/01 01:45:43;;;;;;;4.10;3.47;;;;;;;14.33;100.00;100569.18;1729539;82;21002;-40
2022/09/01 01:48:10;;;;;;;3.47;3.05;;;;;;;14.31;100.00;100573.16;1692384;83;22059;-40
2022/09/01 01:50:39;;;;;;;5.97;3.75;;;;;;;14.29;100.00;100568.88;1735776;82;21030;-40
2022/09/01 01:53:07;;;;;;;8.55;3.62;;;;;;;14.26;100.00;100571.12;1739013;82;21484;-40
2022/09/01 01:55:35;;;;;;;6.83;3.67;;;;;;;14.26;100.00;100571.59;1729311;81;20947;-40
2022/09/01 01:58:04;;;;;;;8.48;3.50;;;;;;;14.22;100.00;100565.18;1729298;82;20999;-40
2022/09/01 02:00:33;;;;;;;7.85;3.45;;;;;;;14.21;100.00;100565.22;1730534;82;22085;-40
2022/09/01 02:03:00;;;;;;;6.50;3.98;;;;;;;14.19;100.00;100570.92;1735389;82;20935;-40
2022/09/01 02:05:32;;;;;;;6.75;4.05;;;;;;;14.17;100.00;100568.82;1749495;82;20896;-40
2022/09/01 02:08:05;;;;;;;4.25;3.58;;;;;;;14.16;100.00;100564.52;1749637;82;21022;-40
2022/09/01 02:10:42;;;;;;;6.08;3.80;;;;;;;14.16;100.00;100568.42;1744490;82;20924;-40
2022/09/01 02:13:15;;;;;;;4.35;3.58;;;;;;;14.17;100.00;100564.92;1711202;83;21224;-40
2022/09/01 02:15:45;;;;;;;3.90;3.58;;;;;;;14.17;100.00;100573.59;1739113;82;21470;-40
2022/09/01 02:18:20;;;;;;;6.40;4.03;;;;;;;14.17;100.00;100571.42;1754567;81;21034;-40
2022/09/01 02:20:49;;;;;;;12.47;3.87;;;;;;;14.17;100.00;100573.59;1753333;81;20978;-40
2022/09/01 02:23:19;;;;;;;6.53;3.60;;;;;;;14.18;100.00;100573.13;1755372;81;21497;-40
2022/09/01 02:25:45;;;;;;;7.53;3.72;;;;;;;14.20;100.00;100572.63;1744551;81;21031;-40
2022/09/01 02:28:14;;;;;;;4.87;3.90;;;;;;;14.20;100.00;100576.09;1707639;82;20923;-40
2022/09/01 02:30:44;;;;;;;8.38;3.92;;;;;;;14.20;100.00;100564.81;1709358;81;20998;-41
2022/09/01 02:33:18;;;;;;;11.00;4.40;;;;;;;14.20;100.00;100569.59;1707700;82;20904;-40
2022/09/01 02:35:49;;;;;;;5.30;3.75;;;;;;;14.21;100.00;100569.13;1747844;81;21456;-40
2022/09/01 02:38:16;;;;;;;7.60;3.80;;;;;;;14.22;100.00;100566.92;1755260;81;21212;-40
2022/09/01 02:40:45;;;;;;;4.85;3.95;;;;;;;14.22;100.00;100571.69;1754968;81;21006;-40
2022/09/01 02:43:19;;;;;;;4.65;3.27;;;;;;;14.23;100.00;100573.83;1754980;81;21314;-40
2022/09/01 02:45:43;;;;;;;5.58;3.75;;;;;;;14.21;100.00;100573.89;1742152;81;20943;-40
2022/09/01 02:48:10;;;;;;;5.65;3.72;;;;;;;14.21;100.00;100571.72;1708154;82;21476;-40
2022/09/01 02:50:38;;;;;;;8.03;3.55;;;;;;;14.19;100.00;100572.23;1734537;82;21246;-40
2022/09/01 02:53:08;;;;;;;6.72;3.83;;;;;;;14.18;100.00;100566.63;1734954;82;21469;-40
2022/09/01 02:55:37;;;;;;;9.53;4.20;;;;;;;14.17;100.00;100564.92;1735024;81;20987;-40
2022/09/01 02:58:06;;;;;;;7.58;3.85;;;;;;;14.16;100.00;100564.52;1734631;82;21980;-40
2022/09/01 03:00:38;;;;;;;6.05;3.35;;;;;;;14.14;100.00;100564.55;1708112;82;20955;-40
2022/09/01 03:03:04;;;;;;;5.08;3.70;;;;;;;14.12;100.00;100569.42;1734670;81;21815;-40
2022/09/01 03:05:33;;;;;;;7.67;3.65;;;;;;;14.08;100.00;100573.43;1709031;82;20978;-40
2022/09/01 03:08:03;;;;;;;5.70;3.70;;;;;;;14.07;100.00;100569.56;1734563;82;20880;-41
2022/09/01 03:10:34;;;;;;;8.08;3.83;;;;;;;14.03;100.00;100570.13;1736127;81;21506;-41
2022/09/01 03:13:03;;;;;;;7.50;4.05;;;;;;;14.02;100.00;100574.93;1707552;82;20907;-40
2022/09/01 03:15:30;;;;;;;5.30;3.62;;;;;;;14.00;100.00;100578.00;1753255;81;21207;-41
2022/09/01 03:17:58;;;;;;;13.75;3.92;;;;;;;13.97;100.00;100579.86;1754792;80;21584;-41
2022/09/01 03:20:26;;;;;;;8.50;4.35;;;;;;;13.97;100.00;100581.16;1755042;81;20934;-41
2022/09/01 03:22:54;;;;;;;5.67;4.28;;;;;;;13.96;100.00;100580.77;1727384;81;21474;-41
2022/09/01 03:25:22;;;;;;;5.47;4.20;;;;;;;13.96;100.00;100589.87;1753817;81;20928;-41
2022/09/01 03:27:51;;;;;;;14.85;4.00;;;;;;;13.97;100.00;100586.37;1754677;81;21191;-41
2022/09/01 03:30:19;;;;;;;5.62;3.70;;;;;;;13.98;100.00;100584.17;1754840;81;20959;-41
2022/09/01 03:32:46;;;;;;;8.05;5.20;;;;;;;13.99;100.00;100584.10;1752512;80;21547;-41
2022/09/01 03:35:14;;;;;;;11.15;4.45;;;;;;;14.01;100.00;100584.07;1739248;81;21017;-41
2022/09/01 03:37:43;;;;;;;6.47;4.58;;;;;;;14.03;100.00;100587.04;1734708;82;20999;-41
2022/09/01 03:40:11;;;;;;;12.30;4.70;;;;;;;14.05;100.00;100583.07;1734624;82;21355;-41
2022/09/01 03:42:39;;;;;;;7.80;4.60;;;;;;;14.07;100.00;100588.64;1734469;82;20979;-41
2022/09/01 03:45:08;;;;;;;5.70;4.15;;;;;;;14.10;100.00;100588.98;1735931;81;20931;-41
2022/09/01 03:47:40;;;;;;;9.98;4.35;;;;;;;14.14;100.00;100591.05;1734566;82;21093;-41
2022/09/01 03:50:21;;;;;;;10.18;4.47;;;;;;;14.16;100.00;100591.85;1734952;82;20991;-40
2022/09/01 03:52:57;;;;;;;6.30;4.05;;;;;;;14.18;100.00;100588.75;1734760;81;21255;-40
2022/09/01 03:55:28;;;;;;;7.85;3.90;;;;;;;14.22;100.00;100594.25;1724735;81;20892;-40
2022/09/01 03:58:05;;;;;;;7.78;4.58;;;;;;;14.23;100.00;100594.66;1754995;80;20998;-40
2022/09/01 04:00:34;;;;;;;12.85;6.67;;;;;;;14.27;100.00;100601.46;1755114;81;20916;-40
2022/09/01 04:03:02;;;;;;;6.35;4.70;;;;;;;14.30;100.00;100601.39;1755344;81;20951;-40
2022/09/01 04:05:32;;;;;;;14.95;5.05;;;;;;;14.32;100.00;100601.33;1753551;80;21240;-40
2022/09/01 04:08:04;;;;;;;11.43;6.22;;;;;;;14.35;100.00;100602.53;1754597;81;20927;-40
2022/09/01 04:10:34;;;;;;;6.85;5.22;;;;;;;14.36;100.00;100598.59;1755296;81;20958;-40
2022/09/01 04:13:01;;;;;;;11.22;5.40;;;;;;;14.40;100.00;100603.26;1754916;81;20927;-40
2022/09/01 04:15:31;;;;;;;14.78;6.53;;;;;;;14.44;100.00;100602.69;1725344;81;20971;-41
2022/09/01 04:18:08;;;;;;;15.95;7.22;;;;;;;14.49;100.00;100599.48;1751123;81;21044;-40
2022/09/01 04:20:38;;;;;;;12.78;6.03;;;;;;;14.54;100.00;100606.72;1749049;82;20974;-40
2022/09/01 04:35:06;;;;;;;6.55;4.67;;;;;;;15.10;100.00;100600.97;1870863;76;23355;-40
2022/09/01 04:37:35;;;;;;;11.68;5.17;;;;;;;15.10;100.00;100603.58;1827150;77;21412;-41
2022/09/01 04:40:04;;;;;;;7.53;4.28;;;;;;;15.05;100.00;100605.50;1806805;78;21240;-41
2022/09/01 04:42:31;;;;;;;14.05;4.40;;;;;;;14.98;100.00;100606.16;1829539;77;21488;-41
2022/09/01 04:44:59;;;;;;;5.33;4.20;;;;;;;14.92;100.00;100608.98;1827124;78;21162;-41
2022/09/01 04:47:30;;;;;;;7.33;4.25;;;;;;;14.83;100.00;100611.44;1788688;78;21459;-41
2022/09/01 04:49:59;;;;;;;9.78;4.22;;;;;;;14.76;100.00;100612.52;1760330;80;21021;-41
2022/09/01 04:52:27;;;;;;;16.85;4.60;;;;;;;14.70;100.00;100606.19;1788645;80;21137;-41
2022/09/01 04:54:54;;;;;;;10.68;4.83;;;;;;;14.61;100.00;100609.95;1727673;81;21523;-41
2022/09/01 04:57:22;;;;;;;7.80;4.45;;;;;;;14.55;100.00;100617.53;1759476;81;21390;-41
2022/09/01 04:59:49;;;;;;;6.45;4.15;;;;;;;14.47;100.00;100620.38;1759450;81;20959;-41
2022/09/01 05:02:16;;;;;;;8.40;4.62;;;;;;;14.42;100.00;100618.81;1749989;81;20930;-41
2022/09/01 05:04:45;;;;;;;6.78;5.15;;;;;;;14.36;100.00;100620.72;1759392;81;21471;-41
2022/09/01 05:07:13;;;;;;;12.45;5.67;;;;;;;14.33;100.00;100614.75;1759518;81;21408;-41
2022/09/01 05:09:40;;;;;;;6.33;4.22;;;;;;;14.34;100.00;100613.41;1759371;81;20986;-42
2022/09/01 05:12:26;;;;;;;5.70;5.17;;;;;;;14.44;100.00;100611.80;1764645;80;20958;-41
2022/09/01 05:14:54;;;;;;;7.75;5.30;;;;;;;14.59;100.00;100609.15;1783737;80;20896;-41
2022/09/01 05:17:22;;;;;;;12.85;5.15;;;;;;;14.73;100.00;100603.52;1803062;79;21254;-42
2022/09/01 05:19:50;;;;;;;11.75;5.58;;;;;;;14.89;100.00;100604.70;1800209;78;20877;-41
2022/09/01 05:22:21;;;;;;;10.08;4.45;;;;;;;15.05;100.00;100604.19;1778710;80;20932;-41
2022/09/01 05:24:50;;;;;;;5.42;4.47;;;;;;;15.19;100.00;100600.63;1750526;81;20916;-41
2022/09/01 05:27:17;;;;;;;4.90;4.20;;;;;;;15.35;100.00;100602.70;1737258;81;20999;-41
2022/09/01 05:29:45;;;;;;;9.90;4.40;;;;;;;15.51;100.00;100601.22;1743328;81;21148;-42
2022/09/01 05:32:13;;;;;;;10.25;3.75;;;;;;;15.67;100.00;100596.75;1765754;81;21458;-41
2022/09/01 05:34:44;;;;;;;13.98;4.00;;;;;;;15.81;100.00;100607.97;1762237;79;20998;-42
2022/09/01 05:37:13;;;;;;;8.23;4.45;;;;;;;15.92;100.00;100604.55;1750031;81;20908;-42
2022/09/01 05:39:39;;;;;;;8.70;4.05;;;;;;;16.02;100.00;100597.17;1735228;82;20935;-41
2022/09/01 05:42:09;;;;;;;10.60;4.67;;;;;;;16.10;100.00;100604.72;1757161;79;21080;-42
2022/09/01 05:44:42;;;;;;;3.83;3.52;;;;;;;16.22;100.00;100602.94;1745137;81;20951;-41
2022/09/01 05:47:08;;;;;;;4.85;4.10;;;;;;;16.31;100.00;100603.03;1735131;81;21051;-42
2022/09/01 05:49:36;;;;;;;9.50;4.92;;;;;;;16.38;100.00;100604.48;1740702;81;20987;-41
2022/09/01 05:52:04;;;;;;;9.93;4.08;;;;;;;16.51;100.00;100609.19;1754315;79;20976;-41
2022/09/01 05:54:31;;;;;;;5.60;4.33;;;;;;;16.62;100.00;100610.05;1751215;81;21215;-42
2022/09/01 05:57:00;;;;;;;4.78;3.62;;;;;;;16.75;100.00;100621.72;1751187;79;20924;-41
2022/09/01 05:59:30;;;;;;;7.78;4.62;;;;;;;16.88;100.00;100619.44;1762390;81;21470;-41
2022/09/01 06:01:59;;;;;;;8.70;3.80;;;;;;;16.97;100.00;100620.81;1752823;79;20983;-41
2022/09/01 06:04:26;;;;;;;9.38;5.08;;;;;;;17.07;98.63;100618.22;1743707;81;21077;-41
2022/09/01 06:06:55;;;;;;;7.33;4.47;;;;;;;17.17;97.74;100617.36;1749072;81;21145;-41
2022/09/01 06:09:23;;;;;;;12.78;4.97;;;;;;;17.27;95.94;100615.20;1751530;81;20979;-41
2022/09/01 06:11:54;;;;;;;8.10;5.92;;;;;;;17.35;93.27;100617.00;1716255;81;21020;-41
2022/09/01 06:14:20;;;;;;;19.77;9.38;;;;;;;17.41;93.67;100617.20;1740654;81;21034;-42
2022/09/01 06:16:49;;;;;;;11.97;6.80;;;;;;;17.48;93.35;100625.16;1740634;81;21420;-42
2022/09/01 06:19:16;;;;;;;9.35;4.12;;;;;;;17.56;93.09;100626.13;1734217;82;21039;-41
2022/09/01 06:21:45;;;;;;;4.15;2.92;;;;;;;17.66;92.28;100622.16;1733911;82;20950;-42
2022/09/01 06:24:13;;;;;;;9.55;3.08;;;;;;;17.79;91.13;100629.47;1734481;82;21455;-42
2022/09/01 06:26:40;;;;;;;7.35;3.35;;;;;;;17.89;92.05;100629.42;1734740;81;21038;-41
2022/09/01 06:29:10;;;;;;;11.97;4.78;;;;;;;18.02;90.96;100632.34;1734103;81;21033;-41
2022/09/01 06:31:38;;;;;;;5.72;3.85;;;;;;;18.16;88.66;100635.62;1733723;82;21124;-41
2022/09/01 06:34:10;;;;;;;10.03;3.15;;;;;;;18.27;86.26;100630.34;1734599;82;20951;-42
2022/09/01 06:36:39;;;;;;;12.43;3.35;;;;;;;18.36;85.01;100626.83;1734548;82;20959;-41
2022/09/01 06:39:07;;;;;;;16.27;5.05;;;;;;;18.43;82.62;100627.83;1734543;82;20995;-42
2022/09/01 06:41:36;;;;;;;23.35;11.97;;;;;;;18.50;82.34;100623.53;1734624;82;20946;-42
2022/09/01 06:44:03;;;;;;;15.20;8.03;;;;;;;18.62;80.38;100626.01;1734549;82;21106;-42
2022/09/01 06:46:33;;;;;;;11.00;4.53;;;;;;;18.71;78.57;100627.78;1734541;82;20966;-42
2022/09/01 06:49:02;;;;;;;6.60;2.80;;;;;;;18.80;78.08;100628.62;1734780;82;20979;-41
2022/09/01 06:51:32;;;;;;;6.30;3.15;;;;;;;18.90;78.15;100625.94;1734600;81;21003;-42
2022/09/01 06:54:00;;;;;;;7.35;3.77;;;;;;;19.00;76.83;100634.66;1734680;82;20955;-42
2022/09/01 06:56:32;;;;;;;16.00;6.62;;;;;;;19.12;74.48;100629.25;1734898;82;21139;-42
2022/09/01 06:59:03;;;;;;;5.62;2.92;;;;;;;19.23;74.54;100629.08;1734517;82;21034;-41
2022/09/01 07:01:30;;;;;;;9.80;1.98;;;;;;;19.36;74.42;100629.28;1734637;82;20939;-42
2022/09/01 07:03:57;;;;;;;11.75;3.20;;;;;;;19.51;74.85;100637.29;1734627;82;21541;-42
2022/09/01 07:06:28;;;;;;;7.83;2.70;;;;;;;19.64;71.19;100634.86;1733076;82;21540;-41
2022/09/01 07:09:14;;;;;;;7.05;3.42;;;;;;;19.75;71.25;100629.86;1734470;82;21173;-41
2022/09/01 07:11:42;;;;;;;8.30;3.77;;;;;;;19.90;70.13;100634.73;1734425;82;21098;-42
2022/09/01 07:14:14;;;;;;;7.15;2.30;;;;;;;20.01;69.68;100637.28;1734657;82;21037;-42
2022/09/01 07:16:39;;;;;;;3.17;2.00;;;;;;;20.08;68.48;100634.23;1734618;82;21014;-42
2022/09/01 07:19:14;;;;;;;4.20;1.30;;;;;;;20.17;67.42;100636.80;1734772;82;20959;-42
2022/09/01 07:21:50;;;;;;;4.33;1.40;;;;;;;20.30;67.63;100635.63;1734036;82;21080;-42
2022/09/01 07:24:19;;;;;;;1.35;1.25;;;;;;;20.45;67.77;100637.02;1734706;82;21488;-42
2022/09/01 07:26:52;;;;;;;2.15;1.20;;;;;;;20.54;66.51;100637.80;1717122;82;20990;-41
2022/09/01 07:29:21;;;;;;;4.50;2.00;;;;;;;20.64;65.60;100638.98;1734435;82;20943;-41
2022/09/01 07:31:48;;;;;;;1.98;1.40;;;;;;;20.76;64.89;100626.03;1734509;82;22246;-41
2022/09/01 07:34:15;;;;;;;2.15;1.50;;;;;;;20.83;63.86;100635.77;1736903;81;21270;-41
2022/09/01 07:36:43;;;;;;;4.70;1.15;;;;;;;20.91;62.91;100637.47;1743231;82;21563;-41
2022/09/01 07:39:11;;;;;;;6.92;3.65;;;;;;;20.96;63.72;100634.95;1742950;82;21017;-41
2022/09/01 07:41:40;;;;;;;3.35;3.05;;;;;;;21.04;62.47;100634.95;1742877;82;21599;-41
2022/09/01 07:44:21;;;;;;;3.30;2.55;;;;;;;21.11;62.98;100632.35;1740338;82;20927;-41
2022/09/01 07:47:08;;;;;;;2.47;1.90;;;;;;;21.31;62.61;100625.87;1743047;82;21252;-42
2022/09/01 07:49:39;;;;;;;6.05;1.20;;;;;;;21.49;63.55;100630.47;1743250;82;21527;-41
2022/09/01 07:52:06;;;;;;;2.52;1.35;;;;;;;21.68;61.07;100628.05;1742982;82;21018;-42
2022/09/01 07:54:36;;;;;;;8.73;1.70;;;;;;;21.79;60.46;100619.47;1742731;82;20963;-41
2022/09/01 07:57:04;;;;;;;1.70;1.10;;;;;;;21.93;60.39;100622.55;1743017;82;21033;-41
2022/09/01 07:59:34;;;;;;;1.12;1.12;;;;;;;22.04;58.88;100617.42;1716481;82;21267;-41
2022/09/01 08:02:04;;;;;;;7.05;4.70;;;;;;;22.19;58.31;100616.89;1715579;82;21013;-41
2022/09/01 08:04:32;;;;;;;7.72;3.40;;;;;;;22.31;58.86;100617.05;1715983;82;21037;-42
2022/09/01 08:07:00;;;;;;;8.55;1.98;;;;;;;22.47;56.23;100620.88;1743190;82;20997;-42
2022/09/01 08:09:28;;;;;;;5.58;2.08;;;;;;;22.57;53.78;100618.47;1715914;82;20930;-42
2022/09/01 08:11:56;;;;;;;5.50;1.17;;;;;;;22.67;53.56;100610.30;1743133;82;21249;-42
2022/09/01 08:14:23;;;;;;;5.62;1.20;;;;;;;22.86;53.82;100607.29;1743058;82;21037;-41
2022/09/01 08:16:50;;;;;;;2.30;1.20;;;;;;;23.02;52.45;100614.14;1743117;82;20963;-42
2022/09/01 08:19:18;;;;;;;2.33;1.00;;;;;;;23.11;53.88;100616.99;1742976;82;20998;-42
2022/09/01 08:21:49;;;;;;;1.10;1.10;;;;;;;23.11;51.03;100618.31;1722791;82;20955;-42
2022/09/01 08:24:21;;;;;;;6.03;1.07;;;;;;;23.04;52.30;100614.88;1742200;82;21261;-42
2022/09/01 08:26:48;;;;;;;5.12;1.42;;;;;;;23.16;49.99;100614.50;1743071;82;21681;-42
2022/09/01 08:29:16;;;;;;;2.10;1.00;;;;;;;23.37;49.53;100609.58;1743045;82;21014;-42
2022/09/01 08:31:43;;;;;;;2.45;1.15;;;;;;;23.69;49.16;100603.80;1742737;82;20911;-42
2022/09/01 08:34:11;;;;;;;2.67;1.15;;;;;;;23.95;48.05;100601.06;1716073;81;20986;-42
2022/09/01 08:36:39;;;;;;;5.92;1.07;;;;;;;24.24;47.23;100591.50;1743047;82;22276;-42
2022/09/01 08:39:06;;;;;;;1.20;1.20;;;;;;;24.53;45.18;100596.41;1742992;82;21106;-42
2022/09/01 08:41:57;;;;;;;5.97;1.22;;;;;;;24.54;45.93;100591.01;1743105;82;21336;-42
2022/09/01 08:44:30;;;;;;;3.08;1.60;;;;;;;24.54;46.69;100595.44;1731646;82;20993;-42
2022/09/01 08:47:04;;;;;;;8.93;4.92;;;;;;;24.33;46.78;100593.45;1715999;82;20895;-42
2022/09/01 08:49:33;;;;;;;2.90;1.75;;;;;;;24.09;46.49;100601.41;1743218;82;21053;-42
2022/09/01 08:52:29;;;;;;;10.18;1.87;;;;;;;24.05;47.08;100595.98;1743010;82;20899;-42
2022/09/01 08:55:24;;;;;;;1.25;1.15;;;;;;;24.10;46.16;100585.91;1743062;82;20998;-41
2022/09/01 08:57:54;;;;;;;5.60;2.62;;;;;;;24.15;45.09;100582.94;1743108;81;20915;-41
2022/09/01 09:00:23;;;;;;;2.52;1.70;;;;;;;24.35;45.19;100584.91;1681513;85;20903;-41
2022/09/01 09:03:24;;;;;;;1.57;1.47;;;;;;;24.71;44.29;100584.07;1679810;84;21222;-42
2022/09/01 09:06:14;;;;;;;8.10;2.52;;;;;;;25.03;44.10;100578.97;1625582;88;21462;-41
2022/09/01 09:08:56;;;;;;;4.65;1.20;;;;;;;25.31;42.26;100585.22;1707911;83;21060;-42
2022/09/01 09:11:52;;;;;;;4.97;1.67;;;;;;;25.46;40.97;100577.39;1713251;83;21576;-41
2022/09/01 09:14:56;;;;;;;1.22;1.12;;;;;;;25.41;40.73;100583.54;1711889;82;21029;-42
2022/09/01 09:17:28;;;;;;;2.45;1.37;;;;;;;25.34;41.42;100581.85;1709989;84;21272;-41
2022/09/01 09:19:56;;;;;;;1.98;1.42;;;;;;;25.16;42.58;100589.91;1709981;82;21007;-41
2022/09/01 09:22:23;;;;;;;2.40;1.20;;;;;;;24.98;43.49;100593.52;1709912;83;21117;-42
2022/09/01 09:25:03;;;;;;;6.47;1.70;;;;;;;24.93;45.25;100596.52;1709921;84;20952;-41
2022/09/01 09:27:36;;;;;;;2.60;1.30;;;;;;;24.79;43.32;100592.28;1709895;83;21488;-42
2022/09/01 09:30:25;;;;;;;2.45;1.30;;;;;;;24.56;42.87;100599.31;1709305;84;21242;-41
2022/09/01 09:33:03;;;;;;;1.30;1.00;;;;;;;24.60;42.26;100589.67;1685832;84;21007;-42
2022/09/01 09:35:41;;;;;;;1.95;1.12;;;;;;;24.91;41.86;100586.53;1741532;81;21435;-41
2022/09/01 09:38:27;;;;;;;3.55;1.20;;;;;;;25.24;42.37;100580.41;1767043;81;20957;-42
2022/09/01 09:41:01;;;;;;;2.77;1.00;;;;;;;25.67;41.03;100583.29;1765889;81;21122;-42
2022/09/01 09:43:31;;;;;;;3.47;1.12;;;;;;;25.76;37.83;100579.88;1767304;80;21183;-42
2022/09/01 09:46:32;;;;;;;1.82;1.52;;;;;;;25.58;39.56;100585.34;1767030;81;21027;-41
2022/09/01 09:49:19;;;;;;;2.80;1.10;;;;;;;25.57;39.30;100584.51;1767384;79;20961;-42
2022/09/01 09:51:56;;;;;;;2.05;1.17;;;;;;;25.80;38.93;100585.29;1767027;81;20972;-42
2022/09/01 09:54:28;;;;;;;5.12;1.07;;;;;;;25.93;38.16;100582.98;1766948;80;21525;-42
2022/09/01 09:57:16;;;;;;;4.05;0.85;;;;;;;25.82;38.74;100583.36;1767038;81;21108;-42
2022/09/01 10:00:00;;;;;;;0.80;0.75;;;;;;;26.03;38.47;100591.86;1766325;81;20905;-42
2022/09/01 10:02:42;;;;;;;1.82;1.00;;;;;;;25.72;39.52;100582.90;1767257;81;21039;-42
2022/09/01 10:05:47;;;;;;;2.12;1.22;;;;;;;25.38;39.38;100586.41;1767154;81;20912;-42
2022/09/01 10:08:33;;;;;;;4.55;1.17;;;;;;;25.17;39.11;100593.78;1767281;81;21414;-42
2022/09/01 10:10:57;;;;;;;5.60;0.78;;;;;;;25.02;39.54;100593.64;1766105;80;21266;-42
2022/09/01 10:13:25;;;;;;;1.67;1.20;;;;;;;24.97;40.43;100588.69;1766974;81;21008;-42
2022/09/01 10:15:57;;;;;;;2.83;1.70;;;;;;;25.07;40.71;100591.47;1741276;81;20995;-41
2022/09/01 10:18:40;;;;;;;10.43;3.08;;;;;;;24.95;40.29;100587.97;1767267;81;21012;-42
2022/09/01 10:21:14;;;;;;;7.78;2.90;;;;;;;24.77;40.93;100602.14;1766633;81;20862;-41
2022/09/01 10:23:43;;;;;;;7.08;2.77;;;;;;;24.60;40.67;100592.33;1766984;81;21466;-42
2022/09/01 10:26:26;;;;;;;5.85;4.87;;;;;;;24.46;41.37;100596.02;1767137;81;20917;-41
2022/09/01 10:29:16;;;;;;;4.47;2.55;;;;;;;24.31;42.33;100596.69;1767255;81;21011;-42
2022/09/01 10:31:43;;;;;;;2.55;1.52;;;;;;;24.41;42.55;100592.05;1767071;81;21072;-41
2022/09/01 10:34:14;;;;;;;2.70;2.30;;;;;;;24.11;43.67;100605.61;1767226;81;20949;-41
2022/09/01 10:36:41;;;;;;;1.92;1.52;;;;;;;23.77;43.20;100594.83;1767117;80;22038;-41
2022/09/01 10:39:14;;;;;;;4.47;2.17;;;;;;;23.62;43.77;100591.50;1767145;81;20961;-42
2022/09/01 10:41:55;;;;;;;14.73;1.90;;;;;;;23.69;44.57;100594.55;1767018;81;20992;-41
2022/09/01 10:44:40;;;;;;;4.83;1.25;;;;;;;23.81;43.80;100597.61;1767217;81;20985;-42
2022/09/01 10:47:24;;;;;;;3.97;1.20;;;;;;;23.83;42.85;100587.77;1739889;81;21016;-41
2022/09/01 10:49:56;;;;;;;1.72;0.93;;;;;;;23.91;43.94;100587.22;1767188;81;21123;-41
2022/09/01 10:52:47;;;;;;;4.10;1.10;;;;;;;24.08;42.84;100586.01;1767334;81;20913;-42
2022/09/01 10:55:28;;;;;;;2.80;0.88;;;;;;;24.17;41.77;100585.81;1767247;81;20960;-42
2022/09/01 10:58:18;;;;;;;0.93;0.93;;;;;;;24.33;42.03;100576.75;1767490;81;20992;-42
2022/09/01 11:00:49;;;;;;;1.47;0.90;;;;;;;24.42;43.41;100576.05;1753939;79;21012;-42
2022/09/01 11:03:21;;;;;;;6.10;0.80;;;;;;;24.62;43.76;100571.88;1741635;79;21888;-43
2022/09/01 11:06:03;;;;;;;2.55;0.90;;;;;;;24.76;43.49;100571.35;1767274;79;21431;-42
2022/09/01 11:08:35;;;;;;;1.95;0.90;;;;;;;24.91;42.29;100578.59;1767394;81;20944;-41
2022/09/01 11:11:17;;;;;;;1.42;0.82;;;;;;;24.72;42.09;100579.14;1767235;81;20925;-41
2022/09/01 11:13:53;;;;;;;2.10;0.80;;;;;;;24.61;42.00;100582.59;1706152;84;21038;-41
2022/09/01 11:16:38;;;;;;;1.07;0.82;;;;;;;24.39;42.48;100581.11;1767171;80;21441;-41
2022/09/01 11:19:42;;;;;;;6.92;1.05;;;;;;;24.18;42.34;100583.53;1763958;81;21033;-42
2022/09/01 11:22:21;;;;;;;2.33;1.10;;;;;;;23.89;43.06;100581.20;1670559;85;20962;-42
2022/09/01 11:24:52;;;;;;;6.00;0.98;;;;;;;23.87;43.46;100576.97;1650788;85;21540;-41
2022/09/01 11:27:51;;;;;;;1.10;0.70;;;;;;;23.78;44.11;100578.52;1725814;81;21022;-41
2022/09/01 11:30:31;;;;;;;2.87;0.80;;;;;;;23.61;44.86;100582.34;1763928;81;21432;-41
2022/09/01 11:33:10;;;;;;;3.37;0.90;;;;;;;23.48;44.58;100586.34;1763605;81;20903;-41
2022/09/01 11:35:36;;;;;;;5.45;1.10;;;;;;;23.51;44.13;100585.66;1760811;81;21041;-42
2022/09/01 11:38:06;;;;;;;0.90;0.90;;;;;;;23.45;44.18;100588.74;1761592;81;21137;-41
2022/09/01 11:40:34;;;;;;;0.65;0.65;;;;;;;23.35;44.13;100579.77;1763806;81;20982;-42
2022/09/01 11:43:10;;;;;;;0.98;0.82;;;;;;;23.51;44.61;100576.91;1763923;81;21249;-42
2022/09/01 11:45:52;;;;;;;2.65;0.88;;;;;;;23.75;43.34;100584.02;1763924;81;20883;-41
2022/09/01 11:48:19;;;;;;;2.35;0.98;;;;;;;23.68;42.64;100575.69;1759232;81;20907;-42
2022/09/01 11:50:46;;;;;;;2.83;1.07;;;;;;;23.68;43.05;100571.73;1763810;81;20979;-41
2022/09/01 11:53:16;;;;;;;4.60;1.05;;;;;;;23.74;43.45;100574.38;1713803;81;20919;-41
2022/09/01 11:55:47;;;;;;;5.58;1.00;;;;;;;23.80;44.23;100574.78;1738015;80;21230;-41
2022/09/01 11:58:33;;;;;;;1.20;0.90;;;;;;;23.89;45.15;100571.12;1763854;80;20946;-42